sensor_id;sensor_type;location;lat;lon;timestamp;P1;durP1;ratioP1;P2;durP2;ratioP2
32812;SDS011;19162;48.254;11.454;2022-10-16T00:02:40;2.57;;;2.37;;
32812;SDS011;19162;48.254;11.454;2022-10-16T00:05:41;6.65;;;2.63;;
32812;SDS011;19162;48.254;11.454;2022-10-16T00:08:42;3.58;;;2.40;;
32812;SDS011;19162;48.254;11.454;2022-10-16T00:11:42;2.80;;;2.60;;
32812;SDS011;19162;48.254;11.454;2022-10-16T00:14:42;3.00;;;2.40;;
32812;SDS011;19162;48.254;11.454;2022-10-16T00:17:43;3.20;;;2.40;;
32812;SDS011;19162;48.254;11.454;2022-10-16T00:20:44;3.50;;;2.05;;
32812;SDS011;19162;48.254;11.454;2022-10-16T00:23:44;2.50;;;2.30;;
32812;SDS011;19162;48.254;11.454;2022-10-16T00:26:44;2.42;;;2.20;;
32812;SDS011;19162;48.254;11.454;2022-10-16T00:29:44;1.77;;;1.67;;
32812;SDS011;19162;48.254;11.454;2022-10-16T00:32:45;2.17;;;2.08;;
32812;SDS011;19162;48.254;11.454;2022-10-16T00:35:45;3.97;;;2.10;;
32812;SDS011;19162;48.254;11.454;2022-10-16T00:38:45;1.90;;;1.70;;
32812;SDS011;19162;48.254;11.454;2022-10-16T00:41:45;3.85;;;1.77;;
32812;SDS011;19162;48.254;11.454;2022-10-16T00:44:52;5.32;;;2.20;;
32812;SDS011;19162;48.254;11.454;2022-10-16T00:47:53;2.35;;;2.15;;
32812;SDS011;19162;48.254;11.454;2022-10-16T00:50:55;2.60;;;1.97;;
32812;SDS011;19162;48.254;11.454;2022-10-16T00:53:56;3.72;;;1.85;;
32812;SDS011;19162;48.254;11.454;2022-10-16T00:56:58;1.85;;;1.75;;
32812;SDS011;19162;48.254;11.454;2022-10-16T00:59:59;2.30;;;2.10;;
32812;SDS011;19162;48.254;11.454;2022-10-16T01:03:00;2.47;;;2.28;;
32812;SDS011;19162;48.254;11.454;2022-10-16T01:09:16;2.28;;;2.00;;
32812;SDS011;19162;48.254;11.454;2022-10-16T01:12:22;3.38;;;2.17;;
32812;SDS011;19162;48.254;11.454;2022-10-16T01:15:30;2.75;;;2.33;;
32812;SDS011;19162;48.254;11.454;2022-10-16T01:18:46;2.88;;;1.77;;
32812;SDS011;19162;48.254;11.454;2022-10-16T01:21:49;3.58;;;2.35;;
32812;SDS011;19162;48.254;11.454;2022-10-16T01:24:51;3.05;;;2.33;;
32812;SDS011;19162;48.254;11.454;2022-10-16T01:27:53;3.10;;;2.07;;
32812;SDS011;19162;48.254;11.454;2022-10-16T01:30:55;2.80;;;1.80;;
32812;SDS011;19162;48.254;11.454;2022-10-16T01:34:02;4.32;;;2.10;;
32812;SDS011;19162;48.254;11.454;2022-10-16T01:37:05;3.92;;;2.55;;
32812;SDS011;19162;48.254;11.454;2022-10-16T01:40:09;2.20;;;2.00;;
32812;SDS011;19162;48.254;11.454;2022-10-16T01:43:21;4.25;;;1.90;;
32812;SDS011;19162;48.254;11.454;2022-10-16T01:46:22;2.55;;;1.90;;
32812;SDS011;19162;48.254;11.454;2022-10-16T01:49:24;3.33;;;2.17;;
32812;SDS011;19162;48.254;11.454;2022-10-16T01:52:25;2.47;;;2.28;;
32812;SDS011;19162;48.254;11.454;2022-10-16T01:55:28;4.35;;;2.40;;
32812;SDS011;19162;48.254;11.454;2022-10-16T02:01:34;2.20;;;2.08;;
32812;SDS011;19162;48.254;11.454;2022-10-16T02:04:37;2.10;;;1.90;;
32812;SDS011;19162;48.254;11.454;2022-10-16T02:07:38;4.22;;;1.60;;
32812;SDS011;19162;48.254;11.454;2022-10-16T02:10:39;2.77;;;2.10;;
32812;SDS011;19162;48.254;11.454;2022-10-16T02:13:41;2.22;;;2.03;;
32812;SDS011;19162;48.254;11.454;2022-10-16T02:16:45;2.60;;;2.08;;
32812;SDS011;19162;48.254;11.454;2022-10-16T02:19:46;1.98;;;1.80;;
32812;SDS011;19162;48.254;11.454;2022-10-16T02:22:47;3.78;;;2.25;;
32812;SDS011;19162;48.254;11.454;2022-10-16T02:25:50;2.55;;;2.35;;
32812;SDS011;19162;48.254;11.454;2022-10-16T02:28:53;1.95;;;1.85;;
32812;SDS011;19162;48.254;11.454;2022-10-16T02:31:59;3.55;;;2.03;;
32812;SDS011;19162;48.254;11.454;2022-10-16T02:35:01;2.22;;;2.10;;
32812;SDS011;19162;48.254;11.454;2022-10-16T02:38:02;2.10;;;2.00;;
32812;SDS011;19162;48.254;11.454;2022-10-16T02:41:03;5.05;;;2.85;;
32812;SDS011;19162;48.254;11.454;2022-10-16T02:44:03;3.85;;;2.42;;
32812;SDS011;19162;48.254;11.454;2022-10-16T02:47:03;3.57;;;2.37;;
32812;SDS011;19162;48.254;11.454;2022-10-16T02:50:03;2.63;;;2.43;;
32812;SDS011;19162;48.254;11.454;2022-10-16T02:53:04;4.00;;;2.15;;
32812;SDS011;19162;48.254;11.454;2022-10-16T02:56:04;4.75;;;2.78;;
32812;SDS011;19162;48.254;11.454;2022-10-16T02:59:04;3.33;;;2.33;;
32812;SDS011;19162;48.254;11.454;2022-10-16T03:02:04;5.50;;;2.47;;
32812;SDS011;19162;48.254;11.454;2022-10-16T03:05:05;3.73;;;2.60;;
32812;SDS011;19162;48.254;11.454;2022-10-16T03:08:05;3.60;;;2.13;;
32812;SDS011;19162;48.254;11.454;2022-10-16T03:11:05;3.17;;;2.23;;
32812;SDS011;19162;48.254;11.454;2022-10-16T03:14:06;3.58;;;2.40;;
32812;SDS011;19162;48.254;11.454;2022-10-16T03:17:06;4.63;;;2.22;;
32812;SDS011;19162;48.254;11.454;2022-10-16T03:20:07;6.22;;;2.85;;
32812;SDS011;19162;48.254;11.454;2022-10-16T03:23:07;4.65;;;2.80;;
32812;SDS011;19162;48.254;11.454;2022-10-16T03:26:08;3.83;;;2.38;;
32812;SDS011;19162;48.254;11.454;2022-10-16T03:29:08;2.80;;;2.60;;
32812;SDS011;19162;48.254;11.454;2022-10-16T03:32:08;3.07;;;2.10;;
32812;SDS011;19162;48.254;11.454;2022-10-16T03:35:08;4.27;;;2.23;;
32812;SDS011;19162;48.254;11.454;2022-10-16T03:38:08;2.30;;;2.10;;
32812;SDS011;19162;48.254;11.454;2022-10-16T03:41:09;2.50;;;2.30;;
32812;SDS011;19162;48.254;11.454;2022-10-16T03:44:09;3.50;;;2.87;;
32812;SDS011;19162;48.254;11.454;2022-10-16T03:47:09;3.17;;;2.50;;
32812;SDS011;19162;48.254;11.454;2022-10-16T03:50:11;2.20;;;1.98;;
32812;SDS011;19162;48.254;11.454;2022-10-16T03:53:11;7.57;;;2.67;;
32812;SDS011;19162;48.254;11.454;2022-10-16T03:56:11;2.80;;;2.00;;
32812;SDS011;19162;48.254;11.454;2022-10-16T03:59:11;2.65;;;2.28;;
32812;SDS011;19162;48.254;11.454;2022-10-16T04:02:12;4.20;;;2.10;;
32812;SDS011;19162;48.254;11.454;2022-10-16T04:05:12;2.58;;;2.22;;
32812;SDS011;19162;48.254;11.454;2022-10-16T04:08:12;4.53;;;2.08;;
32812;SDS011;19162;48.254;11.454;2022-10-16T04:11:12;2.28;;;2.08;;
32812;SDS011;19162;48.254;11.454;2022-10-16T04:14:12;3.53;;;1.90;;
32812;SDS011;19162;48.254;11.454;2022-10-16T04:17:13;4.45;;;1.80;;
32812;SDS011;19162;48.254;11.454;2022-10-16T04:20:13;3.33;;;2.30;;
32812;SDS011;19162;48.254;11.454;2022-10-16T04:23:13;2.97;;;2.60;;
32812;SDS011;19162;48.254;11.454;2022-10-16T04:26:13;2.13;;;2.00;;
32812;SDS011;19162;48.254;11.454;2022-10-16T04:29:13;2.47;;;2.27;;
32812;SDS011;19162;48.254;11.454;2022-10-16T04:32:14;4.67;;;2.30;;
32812;SDS011;19162;48.254;11.454;2022-10-16T04:35:14;3.67;;;2.50;;
32812;SDS011;19162;48.254;11.454;2022-10-16T04:38:14;2.73;;;2.17;;
32812;SDS011;19162;48.254;11.454;2022-10-16T04:41:14;5.50;;;2.83;;
32812;SDS011;19162;48.254;11.454;2022-10-16T04:44:15;3.20;;;2.58;;
32812;SDS011;19162;48.254;11.454;2022-10-16T04:47:15;6.03;;;2.45;;
32812;SDS011;19162;48.254;11.454;2022-10-16T04:50:15;2.42;;;2.00;;
32812;SDS011;19162;48.254;11.454;2022-10-16T04:53:15;4.17;;;2.30;;
32812;SDS011;19162;48.254;11.454;2022-10-16T04:56:16;2.03;;;1.90;;
32812;SDS011;19162;48.254;11.454;2022-10-16T04:59:17;2.67;;;2.27;;
32812;SDS011;19162;48.254;11.454;2022-10-16T05:02:17;2.38;;;1.75;;
32812;SDS011;19162;48.254;11.454;2022-10-16T05:05:17;2.47;;;2.27;;
32812;SDS011;19162;48.254;11.454;2022-10-16T05:08:19;2.63;;;2.00;;
32812;SDS011;19162;48.254;11.454;2022-10-16T05:11:19;2.17;;;2.00;;
32812;SDS011;19162;48.254;11.454;2022-10-16T05:14:19;2.20;;;2.00;;
32812;SDS011;19162;48.254;11.454;2022-10-16T05:17:20;2.08;;;1.95;;
32812;SDS011;19162;48.254;11.454;2022-10-16T05:20:20;2.10;;;1.77;;
32812;SDS011;19162;48.254;11.454;2022-10-16T05:23:20;2.28;;;2.10;;
32812;SDS011;19162;48.254;11.454;2022-10-16T05:26:21;2.23;;;2.03;;
32812;SDS011;19162;48.254;11.454;2022-10-16T05:29:21;2.53;;;2.23;;
32812;SDS011;19162;48.254;11.454;2022-10-16T05:32:21;2.57;;;2.37;;
32812;SDS011;19162;48.254;11.454;2022-10-16T05:35:21;3.17;;;2.42;;
32812;SDS011;19162;48.254;11.454;2022-10-16T05:38:21;2.83;;;2.50;;
32812;SDS011;19162;48.254;11.454;2022-10-16T05:41:22;2.23;;;2.03;;
32812;SDS011;19162;48.254;11.454;2022-10-16T05:44:25;2.92;;;2.35;;
32812;SDS011;19162;48.254;11.454;2022-10-16T05:47:25;2.20;;;2.00;;
32812;SDS011;19162;48.254;11.454;2022-10-16T05:50:25;3.00;;;2.27;;
32812;SDS011;19162;48.254;11.454;2022-10-16T05:53:30;5.07;;;1.58;;
32812;SDS011;19162;48.254;11.454;2022-10-16T05:56:30;2.10;;;1.98;;
32812;SDS011;19162;48.254;11.454;2022-10-16T05:59:31;5.13;;;1.93;;
32812;SDS011;19162;48.254;11.454;2022-10-16T06:02:31;4.40;;;2.03;;
32812;SDS011;19162;48.254;11.454;2022-10-16T06:05:31;5.67;;;2.33;;
32812;SDS011;19162;48.254;11.454;2022-10-16T06:08:31;2.33;;;2.17;;
32812;SDS011;19162;48.254;11.454;2022-10-16T06:11:32;3.35;;;2.35;;
32812;SDS011;19162;48.254;11.454;2022-10-16T06:14:32;3.95;;;2.20;;
32812;SDS011;19162;48.254;11.454;2022-10-16T06:17:33;2.53;;;1.97;;
32812;SDS011;19162;48.254;11.454;2022-10-16T06:20:33;2.63;;;2.42;;
32812;SDS011;19162;48.254;11.454;2022-10-16T06:23:33;3.28;;;2.15;;
32812;SDS011;19162;48.254;11.454;2022-10-16T06:26:33;2.88;;;2.65;;
32812;SDS011;19162;48.254;11.454;2022-10-16T06:29:33;2.43;;;2.03;;
32812;SDS011;19162;48.254;11.454;2022-10-16T06:32:34;4.47;;;2.53;;
32812;SDS011;19162;48.254;11.454;2022-10-16T06:35:34;2.63;;;2.17;;
32812;SDS011;19162;48.254;11.454;2022-10-16T06:38:35;5.37;;;2.63;;
32812;SDS011;19162;48.254;11.454;2022-10-16T06:41:35;2.53;;;2.33;;
32812;SDS011;19162;48.254;11.454;2022-10-16T06:44:36;4.10;;;2.78;;
32812;SDS011;19162;48.254;11.454;2022-10-16T06:47:36;6.32;;;2.80;;
32812;SDS011;19162;48.254;11.454;2022-10-16T06:50:36;4.70;;;2.60;;
32812;SDS011;19162;48.254;11.454;2022-10-16T06:53:37;3.88;;;2.58;;
32812;SDS011;19162;48.254;11.454;2022-10-16T06:56:38;4.85;;;2.50;;
32812;SDS011;19162;48.254;11.454;2022-10-16T06:59:38;3.10;;;2.30;;
32812;SDS011;19162;48.254;11.454;2022-10-16T07:02:38;3.17;;;2.87;;
32812;SDS011;19162;48.254;11.454;2022-10-16T07:05:39;2.92;;;2.72;;
32812;SDS011;19162;48.254;11.454;2022-10-16T07:08:40;3.33;;;2.65;;
32812;SDS011;19162;48.254;11.454;2022-10-16T07:11:41;3.92;;;2.90;;
32812;SDS011;19162;48.254;11.454;2022-10-16T07:14:41;3.70;;;3.10;;
32812;SDS011;19162;48.254;11.454;2022-10-16T07:17:41;3.30;;;2.60;;
32812;SDS011;19162;48.254;11.454;2022-10-16T07:20:41;3.47;;;2.20;;
32812;SDS011;19162;48.254;11.454;2022-10-16T07:23:42;4.03;;;2.60;;
32812;SDS011;19162;48.254;11.454;2022-10-16T07:26:43;3.00;;;2.70;;
32812;SDS011;19162;48.254;11.454;2022-10-16T07:29:44;8.20;;;7.47;;
32812;SDS011;19162;48.254;11.454;2022-10-16T07:32:44;6.85;;;3.05;;
32812;SDS011;19162;48.254;11.454;2022-10-16T07:35:51;3.85;;;2.72;;
32812;SDS011;19162;48.254;11.454;2022-10-16T07:38:51;8.13;;;2.60;;
32812;SDS011;19162;48.254;11.454;2022-10-16T07:41:52;3.30;;;3.00;;
32812;SDS011;19162;48.254;11.454;2022-10-16T07:44:52;4.17;;;2.80;;
32812;SDS011;19162;48.254;11.454;2022-10-16T07:47:52;5.82;;;3.88;;
32812;SDS011;19162;48.254;11.454;2022-10-16T07:50:56;6.65;;;3.05;;
32812;SDS011;19162;48.254;11.454;2022-10-16T07:53:56;6.78;;;2.80;;
32812;SDS011;19162;48.254;11.454;2022-10-16T07:56:56;5.23;;;3.00;;
32812;SDS011;19162;48.254;11.454;2022-10-16T07:59:57;5.07;;;3.38;;
32812;SDS011;19162;48.254;11.454;2022-10-16T08:02:57;3.57;;;2.60;;
32812;SDS011;19162;48.254;11.454;2022-10-16T08:06:00;4.65;;;2.90;;
32812;SDS011;19162;48.254;11.454;2022-10-16T09:16:10;2.78;;;2.38;;
32812;SDS011;19162;48.254;11.454;2022-10-16T09:22:16;2.08;;;1.98;;
32812;SDS011;19162;48.254;11.454;2022-10-16T09:25:17;3.47;;;2.28;;
32812;SDS011;19162;48.254;11.454;2022-10-16T09:28:18;2.20;;;1.92;;
32812;SDS011;19162;48.254;11.454;2022-10-16T09:31:19;3.45;;;2.25;;
32812;SDS011;19162;48.254;11.454;2022-10-16T09:34:30;2.65;;;2.22;;
32812;SDS011;19162;48.254;11.454;2022-10-16T09:37:31;2.83;;;2.50;;
32812;SDS011;19162;48.254;11.454;2022-10-16T09:40:32;2.77;;;2.03;;
32812;SDS011;19162;48.254;11.454;2022-10-16T09:43:41;5.57;;;2.00;;
32812;SDS011;19162;48.254;11.454;2022-10-16T09:46:41;4.55;;;2.45;;
32812;SDS011;19162;48.254;11.454;2022-10-16T09:50:02;2.50;;;2.30;;
32812;SDS011;19162;48.254;11.454;2022-10-16T09:53:05;2.78;;;2.08;;
32812;SDS011;19162;48.254;11.454;2022-10-16T09:56:05;2.92;;;1.98;;
32812;SDS011;19162;48.254;11.454;2022-10-16T09:59:13;4.22;;;2.10;;
32812;SDS011;19162;48.254;11.454;2022-10-16T10:02:14;3.00;;;1.92;;
32812;SDS011;19162;48.254;11.454;2022-10-16T10:05:22;2.45;;;2.25;;
32812;SDS011;19162;48.254;11.454;2022-10-16T10:08:23;3.20;;;1.70;;
32812;SDS011;19162;48.254;11.454;2022-10-16T10:11:37;2.70;;;2.10;;
32812;SDS011;19162;48.254;11.454;2022-10-16T10:14:47;3.83;;;2.10;;
32812;SDS011;19162;48.254;11.454;2022-10-16T10:17:48;5.90;;;2.17;;
32812;SDS011;19162;48.254;11.454;2022-10-16T10:20:59;4.05;;;2.13;;
32812;SDS011;19162;48.254;11.454;2022-10-16T10:24:00;4.43;;;1.98;;
32812;SDS011;19162;48.254;11.454;2022-10-16T10:27:03;2.92;;;2.00;;
32812;SDS011;19162;48.254;11.454;2022-10-16T10:30:19;2.15;;;2.00;;
32812;SDS011;19162;48.254;11.454;2022-10-16T10:36:38;1.75;;;1.65;;
32812;SDS011;19162;48.254;11.454;2022-10-16T10:39:43;2.08;;;1.88;;
32812;SDS011;19162;48.254;11.454;2022-10-16T10:42:59;3.58;;;1.30;;
32812;SDS011;19162;48.254;11.454;2022-10-16T10:46:04;6.63;;;1.77;;
32812;SDS011;19162;48.254;11.454;2022-10-16T11:01:27;2.63;;;1.27;;
32812;SDS011;19162;48.254;11.454;2022-10-16T11:04:34;2.10;;;1.35;;
32812;SDS011;19162;48.254;11.454;2022-10-16T11:07:37;4.20;;;1.30;;
32812;SDS011;19162;48.254;11.454;2022-10-16T11:13:55;1.63;;;1.08;;
32812;SDS011;19162;48.254;11.454;2022-10-16T11:16:58;3.17;;;1.27;;
32812;SDS011;19162;48.254;11.454;2022-10-16T11:20:18;0.95;;;0.90;;
32812;SDS011;19162;48.254;11.454;2022-10-16T11:26:30;5.55;;;1.10;;
32812;SDS011;19162;48.254;11.454;2022-10-16T11:29:32;1.55;;;1.10;;
32812;SDS011;19162;48.254;11.454;2022-10-16T11:36:04;0.80;;;0.80;;
32812;SDS011;19162;48.254;11.454;2022-10-16T11:48:30;3.35;;;1.23;;
32812;SDS011;19162;48.254;11.454;2022-10-16T11:51:39;0.95;;;0.60;;
32812;SDS011;19162;48.254;11.454;2022-10-16T11:57:50;0.68;;;0.68;;
32812;SDS011;19162;48.254;11.454;2022-10-16T12:00:57;0.60;;;0.60;;
32812;SDS011;19162;48.254;11.454;2022-10-16T12:10:18;0.82;;;0.70;;
32812;SDS011;19162;48.254;11.454;2022-10-16T12:13:38;2.13;;;0.70;;
32812;SDS011;19162;48.254;11.454;2022-10-16T12:16:50;0.93;;;0.70;;
32812;SDS011;19162;48.254;11.454;2022-10-16T12:19:57;1.33;;;0.77;;
32812;SDS011;19162;48.254;11.454;2022-10-16T12:23:03;1.27;;;1.17;;
32812;SDS011;19162;48.254;11.454;2022-10-16T12:26:04;1.15;;;0.82;;
32812;SDS011;19162;48.254;11.454;2022-10-16T12:29:19;0.90;;;0.60;;
32812;SDS011;19162;48.254;11.454;2022-10-16T12:32:29;1.30;;;0.80;;
32812;SDS011;19162;48.254;11.454;2022-10-16T12:35:32;1.10;;;0.80;;
32812;SDS011;19162;48.254;11.454;2022-10-16T12:41:45;0.95;;;0.80;;
32812;SDS011;19162;48.254;11.454;2022-10-16T12:44:45;0.80;;;0.80;;
32812;SDS011;19162;48.254;11.454;2022-10-16T12:47:50;5.20;;;0.82;;
32812;SDS011;19162;48.254;11.454;2022-10-16T12:50:51;0.57;;;0.50;;
32812;SDS011;19162;48.254;11.454;2022-10-16T13:03:35;2.47;;;0.70;;
32812;SDS011;19162;48.254;11.454;2022-10-16T13:06:43;1.33;;;0.82;;
32812;SDS011;19162;48.254;11.454;2022-10-16T13:12:54;0.85;;;0.80;;
32812;SDS011;19162;48.254;11.454;2022-10-16T13:15:58;0.85;;;0.65;;
32812;SDS011;19162;48.254;11.454;2022-10-16T13:22:42;1.67;;;0.82;;
32812;SDS011;19162;48.254;11.454;2022-10-16T13:25:48;2.67;;;0.98;;
32812;SDS011;19162;48.254;11.454;2022-10-16T13:28:52;0.60;;;0.60;;
32812;SDS011;19162;48.254;11.454;2022-10-16T13:31:52;0.70;;;0.68;;
32812;SDS011;19162;48.254;11.454;2022-10-16T13:34:52;0.97;;;0.63;;
32812;SDS011;19162;48.254;11.454;2022-10-16T13:38:11;2.83;;;1.00;;
32812;SDS011;19162;48.254;11.454;2022-10-16T13:41:16;1.38;;;0.90;;
32812;SDS011;19162;48.254;11.454;2022-10-16T13:44:19;0.65;;;0.63;;
32812;SDS011;19162;48.254;11.454;2022-10-16T13:47:21;0.60;;;0.60;;
32812;SDS011;19162;48.254;11.454;2022-10-16T13:50:21;1.17;;;0.77;;
32812;SDS011;19162;48.254;11.454;2022-10-16T13:53:22;1.10;;;1.00;;
32812;SDS011;19162;48.254;11.454;2022-10-16T13:56:22;0.93;;;0.83;;
32812;SDS011;19162;48.254;11.454;2022-10-16T13:59:33;2.33;;;0.82;;
32812;SDS011;19162;48.254;11.454;2022-10-16T14:02:34;0.95;;;0.60;;
32812;SDS011;19162;48.254;11.454;2022-10-16T14:05:34;3.05;;;0.80;;
32812;SDS011;19162;48.254;11.454;2022-10-16T14:08:35;0.90;;;0.90;;
32812;SDS011;19162;48.254;11.454;2022-10-16T14:11:36;0.97;;;0.97;;
32812;SDS011;19162;48.254;11.454;2022-10-16T14:14:42;1.98;;;0.85;;
32812;SDS011;19162;48.254;11.454;2022-10-16T14:17:43;0.80;;;0.80;;
32812;SDS011;19162;48.254;11.454;2022-10-16T14:20:43;1.70;;;0.70;;
32812;SDS011;19162;48.254;11.454;2022-10-16T14:23:44;1.60;;;0.73;;
32812;SDS011;19162;48.254;11.454;2022-10-16T14:26:44;0.83;;;0.83;;
32812;SDS011;19162;48.254;11.454;2022-10-16T14:29:44;0.80;;;0.80;;
32812;SDS011;19162;48.254;11.454;2022-10-16T14:36:13;1.50;;;1.35;;
32812;SDS011;19162;48.254;11.454;2022-10-16T14:39:17;2.33;;;0.82;;
32812;SDS011;19162;48.254;11.454;2022-10-16T14:42:19;0.80;;;0.80;;
32812;SDS011;19162;48.254;11.454;2022-10-16T14:45:20;1.08;;;0.88;;
32812;SDS011;19162;48.254;11.454;2022-10-16T14:48:21;2.47;;;1.30;;
32812;SDS011;19162;48.254;11.454;2022-10-16T14:51:21;1.67;;;1.10;;
32812;SDS011;19162;48.254;11.454;2022-10-16T14:54:22;1.23;;;1.13;;
32812;SDS011;19162;48.254;11.454;2022-10-16T14:57:23;0.80;;;0.80;;
32812;SDS011;19162;48.254;11.454;2022-10-16T15:00:23;1.27;;;1.17;;
32812;SDS011;19162;48.254;11.454;2022-10-16T15:03:24;1.85;;;1.17;;
32812;SDS011;19162;48.254;11.454;2022-10-16T15:06:24;2.08;;;1.27;;
32812;SDS011;19162;48.254;11.454;2022-10-16T15:09:24;3.07;;;1.30;;
32812;SDS011;19162;48.254;11.454;2022-10-16T15:12:24;3.47;;;1.27;;
32812;SDS011;19162;48.254;11.454;2022-10-16T15:18:25;2.03;;;1.00;;
32812;SDS011;19162;48.254;11.454;2022-10-16T15:24:26;2.33;;;1.35;;
32812;SDS011;19162;48.254;11.454;2022-10-16T15:27:26;1.53;;;1.23;;
32812;SDS011;19162;48.254;11.454;2022-10-16T15:30:26;1.05;;;1.00;;
32812;SDS011;19162;48.254;11.454;2022-10-16T15:33:27;3.78;;;1.42;;
32812;SDS011;19162;48.254;11.454;2022-10-16T15:36:31;3.80;;;1.25;;
32812;SDS011;19162;48.254;11.454;2022-10-16T15:39:33;1.08;;;0.93;;
32812;SDS011;19162;48.254;11.454;2022-10-16T15:42:33;4.93;;;1.23;;
32812;SDS011;19162;48.254;11.454;2022-10-16T15:45:34;1.13;;;1.00;;
32812;SDS011;19162;48.254;11.454;2022-10-16T15:48:34;4.32;;;1.63;;
32812;SDS011;19162;48.254;11.454;2022-10-16T15:51:37;1.50;;;1.40;;
32812;SDS011;19162;48.254;11.454;2022-10-16T15:54:38;2.33;;;1.40;;
32812;SDS011;19162;48.254;11.454;2022-10-16T15:57:38;2.83;;;1.50;;
32812;SDS011;19162;48.254;11.454;2022-10-16T16:00:40;3.30;;;2.75;;
32812;SDS011;19162;48.254;11.454;2022-10-16T16:03:40;3.70;;;3.28;;
32812;SDS011;19162;48.254;11.454;2022-10-16T16:06:41;4.50;;;3.63;;
32812;SDS011;19162;48.254;11.454;2022-10-16T16:09:44;5.05;;;4.55;;
32812;SDS011;19162;48.254;11.454;2022-10-16T16:12:45;4.50;;;3.15;;
32812;SDS011;19162;48.254;11.454;2022-10-16T16:15:49;5.38;;;3.53;;
32812;SDS011;19162;48.254;11.454;2022-10-16T16:18:50;4.50;;;3.03;;
32812;SDS011;19162;48.254;11.454;2022-10-16T16:24:52;3.08;;;2.63;;
32812;SDS011;19162;48.254;11.454;2022-10-16T16:27:52;3.07;;;2.57;;
32812;SDS011;19162;48.254;11.454;2022-10-16T16:30:52;5.57;;;4.70;;
32812;SDS011;19162;48.254;11.454;2022-10-16T16:33:53;3.70;;;3.40;;
32812;SDS011;19162;48.254;11.454;2022-10-16T16:36:54;6.18;;;2.72;;
32812;SDS011;19162;48.254;11.454;2022-10-16T16:39:54;5.57;;;2.60;;
32812;SDS011;19162;48.254;11.454;2022-10-16T16:42:58;2.65;;;2.05;;
32812;SDS011;19162;48.254;11.454;2022-10-16T16:45:59;5.03;;;2.05;;
32812;SDS011;19162;48.254;11.454;2022-10-16T16:52:01;2.47;;;1.70;;
32812;SDS011;19162;48.254;11.454;2022-10-16T16:55:01;11.63;;;2.10;;
32812;SDS011;19162;48.254;11.454;2022-10-16T16:58:02;1.70;;;1.50;;
32812;SDS011;19162;48.254;11.454;2022-10-16T17:01:03;2.00;;;1.80;;
32812;SDS011;19162;48.254;11.454;2022-10-16T17:04:05;2.93;;;1.80;;
32812;SDS011;19162;48.254;11.454;2022-10-16T17:07:05;2.13;;;1.92;;
32812;SDS011;19162;48.254;11.454;2022-10-16T17:10:05;4.23;;;2.43;;
32812;SDS011;19162;48.254;11.454;2022-10-16T17:13:06;3.58;;;2.00;;
32812;SDS011;19162;48.254;11.454;2022-10-16T17:16:06;5.60;;;2.10;;
32812;SDS011;19162;48.254;11.454;2022-10-16T17:19:07;2.63;;;2.00;;
32812;SDS011;19162;48.254;11.454;2022-10-16T17:22:08;3.15;;;1.70;;
32812;SDS011;19162;48.254;11.454;2022-10-16T17:25:08;5.23;;;2.10;;
32812;SDS011;19162;48.254;11.454;2022-10-16T17:28:09;3.13;;;2.03;;
32812;SDS011;19162;48.254;11.454;2022-10-16T17:31:16;2.90;;;1.98;;
32812;SDS011;19162;48.254;11.454;2022-10-16T17:34:16;5.25;;;4.05;;
32812;SDS011;19162;48.254;11.454;2022-10-16T17:37:17;7.82;;;4.93;;
32812;SDS011;19162;48.254;11.454;2022-10-16T17:40:17;2.95;;;2.10;;
32812;SDS011;19162;48.254;11.454;2022-10-16T17:43:18;4.57;;;2.53;;
32812;SDS011;19162;48.254;11.454;2022-10-16T17:46:19;4.87;;;2.87;;
32812;SDS011;19162;48.254;11.454;2022-10-16T17:49:20;4.18;;;3.33;;
32812;SDS011;19162;48.254;11.454;2022-10-16T17:52:20;3.40;;;3.10;;
32812;SDS011;19162;48.254;11.454;2022-10-16T17:55:20;3.35;;;3.00;;
32812;SDS011;19162;48.254;11.454;2022-10-16T17:58:20;4.47;;;3.63;;
32812;SDS011;19162;48.254;11.454;2022-10-16T18:01:21;3.33;;;3.03;;
32812;SDS011;19162;48.254;11.454;2022-10-16T18:04:22;4.00;;;3.13;;
32812;SDS011;19162;48.254;11.454;2022-10-16T18:07:23;3.00;;;2.73;;
32812;SDS011;19162;48.254;11.454;2022-10-16T18:10:23;4.90;;;3.60;;
32812;SDS011;19162;48.254;11.454;2022-10-16T18:13:23;5.67;;;3.10;;
32812;SDS011;19162;48.254;11.454;2022-10-16T18:16:24;3.08;;;2.60;;
32812;SDS011;19162;48.254;11.454;2022-10-16T18:19:24;4.82;;;3.92;;
32812;SDS011;19162;48.254;11.454;2022-10-16T18:22:25;3.57;;;3.27;;
32812;SDS011;19162;48.254;11.454;2022-10-16T18:25:26;6.63;;;3.53;;
32812;SDS011;19162;48.254;11.454;2022-10-16T18:28:26;7.63;;;4.00;;
32812;SDS011;19162;48.254;11.454;2022-10-16T18:31:26;7.33;;;3.77;;
32812;SDS011;19162;48.254;11.454;2022-10-16T18:34:27;4.85;;;4.03;;
32812;SDS011;19162;48.254;11.454;2022-10-16T18:37:27;6.73;;;4.17;;
32812;SDS011;19162;48.254;11.454;2022-10-16T18:40:27;4.85;;;4.45;;
32812;SDS011;19162;48.254;11.454;2022-10-16T18:43:28;9.00;;;7.10;;
32812;SDS011;19162;48.254;11.454;2022-10-16T18:46:28;6.60;;;5.57;;
32812;SDS011;19162;48.254;11.454;2022-10-16T18:49:28;7.67;;;6.87;;
32812;SDS011;19162;48.254;11.454;2022-10-16T18:52:29;9.45;;;8.65;;
32812;SDS011;19162;48.254;11.454;2022-10-16T18:55:31;10.65;;;9.27;;
32812;SDS011;19162;48.254;11.454;2022-10-16T18:58:33;8.02;;;7.32;;
32812;SDS011;19162;48.254;11.454;2022-10-16T19:01:34;6.72;;;6.05;;
32812;SDS011;19162;48.254;11.454;2022-10-16T19:04:35;7.38;;;6.78;;
32812;SDS011;19162;48.254;11.454;2022-10-16T19:07:35;8.10;;;6.85;;
32812;SDS011;19162;48.254;11.454;2022-10-16T19:10:36;8.25;;;7.00;;
32812;SDS011;19162;48.254;11.454;2022-10-16T19:13:37;8.50;;;7.63;;
32812;SDS011;19162;48.254;11.454;2022-10-16T19:16:37;9.65;;;8.38;;
32812;SDS011;19162;48.254;11.454;2022-10-16T19:19:38;8.48;;;7.45;;
32812;SDS011;19162;48.254;11.454;2022-10-16T19:22:38;8.23;;;7.40;;
32812;SDS011;19162;48.254;11.454;2022-10-16T19:25:52;9.05;;;8.23;;
32812;SDS011;19162;48.254;11.454;2022-10-16T19:28:57;8.55;;;7.60;;
32812;SDS011;19162;48.254;11.454;2022-10-16T19:31:58;7.82;;;7.07;;
32812;SDS011;19162;48.254;11.454;2022-10-16T19:35:01;8.15;;;7.45;;
32812;SDS011;19162;48.254;11.454;2022-10-16T19:38:01;8.77;;;6.83;;
32812;SDS011;19162;48.254;11.454;2022-10-16T19:41:19;7.20;;;6.50;;
32812;SDS011;19162;48.254;11.454;2022-10-16T19:44:20;8.73;;;7.60;;
32812;SDS011;19162;48.254;11.454;2022-10-16T19:47:20;6.90;;;6.20;;
32812;SDS011;19162;48.254;11.454;2022-10-16T19:50:20;8.90;;;6.47;;
32812;SDS011;19162;48.254;11.454;2022-10-16T19:53:20;8.00;;;7.20;;
32812;SDS011;19162;48.254;11.454;2022-10-16T19:56:21;8.38;;;7.10;;
32812;SDS011;19162;48.254;11.454;2022-10-16T19:59:22;10.15;;;7.38;;
32812;SDS011;19162;48.254;11.454;2022-10-16T20:02:22;9.18;;;6.57;;
32812;SDS011;19162;48.254;11.454;2022-10-16T20:05:22;7.83;;;7.10;;
32812;SDS011;19162;48.254;11.454;2022-10-16T20:08:23;7.70;;;7.00;;
32812;SDS011;19162;48.254;11.454;2022-10-16T20:11:24;9.80;;;6.90;;
32812;SDS011;19162;48.254;11.454;2022-10-16T20:14:25;7.95;;;6.57;;
32812;SDS011;19162;48.254;11.454;2022-10-16T20:17:25;9.57;;;7.63;;
32812;SDS011;19162;48.254;11.454;2022-10-16T20:20:25;6.30;;;5.72;;
32812;SDS011;19162;48.254;11.454;2022-10-16T20:23:25;6.90;;;6.30;;
32812;SDS011;19162;48.254;11.454;2022-10-16T20:26:26;9.88;;;5.70;;
32812;SDS011;19162;48.254;11.454;2022-10-16T20:29:26;5.70;;;5.20;;
32812;SDS011;19162;48.254;11.454;2022-10-16T20:32:26;6.83;;;5.30;;
32812;SDS011;19162;48.254;11.454;2022-10-16T20:35:27;5.85;;;5.30;;